createdAt,value
2019-04-11T00:00:31.310Z,63.32
2019-04-11T00:03:00.812Z,63.53
2019-04-11T00:05:30.705Z,63.54
2019-04-11T00:08:00.079Z,63.66
2019-04-11T00:10:29.249Z,63.79
2019-04-11T00:12:59.081Z,63.76
2019-04-11T00:15:28.786Z,63.86
2019-04-11T00:17:58.519Z,63.89
2019-04-11T00:20:28.985Z,63.96
2019-04-11T00:22:58.001Z,64.27
2019-04-11T00:25:27.481Z,64.25
2019-04-11T00:27:57.276Z,64.30
2019-04-11T00:30:26.277Z,64.39
2019-04-11T00:32:56.061Z,64.63
2019-04-11T00:35:25.904Z,64.60
2019-04-11T00:37:55.363Z,64.81
2019-04-11T00:40:24.872Z,64.73
2019-04-11T00:42:54.701Z,65.23
2019-04-11T00:45:23.493Z,65.06
2019-04-11T00:47:53.179Z,65.06
2019-04-11T00:50:23.246Z,65.09
2019-04-11T00:52:52.167Z,65.14
2019-04-11T00:55:21.752Z,65.27
2019-04-11T00:57:51.032Z,65.39
2019-04-11T01:00:20.882Z,65.51
2019-04-11T01:02:49.666Z,65.63
2019-04-11T01:05:18.664Z,65.62
2019-04-11T01:07:47.240Z,65.76
2019-04-11T01:10:16.219Z,66.04
2019-04-11T01:12:44.909Z,66.08
2019-04-11T01:15:15.725Z,66.08
2019-04-11T01:17:45.372Z,66.18
2019-04-11T01:20:15.376Z,66.44
2019-04-11T01:22:44.543Z,66.49
2019-04-11T01:25:13.652Z,66.49
2019-04-11T01:27:43.874Z,66.61
2019-04-11T01:30:15.832Z,66.79
2019-04-11T01:32:44.559Z,66.74
2019-04-11T01:35:13.142Z,66.96
2019-04-11T01:37:41.969Z,66.89
2019-04-11T01:40:11.796Z,66.99
2019-04-11T01:42:41.660Z,67.28
2019-04-11T01:45:12.140Z,67.19
2019-04-11T01:47:48.299Z,67.24
2019-04-11T01:50:18.959Z,67.60
2019-04-11T01:52:48.805Z,67.46
2019-04-11T01:55:18.527Z,67.60
2019-04-11T01:57:47.144Z,67.77
2019-04-11T02:00:24.147Z,67.72
2019-04-11T02:02:54.927Z,67.89
2019-04-11T02:05:27.154Z,67.80
2019-04-11T02:07:56.166Z,67.95
2019-04-11T02:10:24.742Z,68.00
2019-04-11T02:12:53.536Z,68.02
2019-04-11T02:15:24.091Z,68.14
2019-04-11T02:17:53.603Z,68.50
2019-04-11T02:20:23.009Z,68.39
2019-04-11T02:22:54.861Z,68.51
2019-04-11T02:25:25.604Z,68.55
2019-04-11T02:27:54.358Z,68.86
2019-04-11T02:30:25.396Z,68.91
2019-04-11T02:32:55.955Z,69.01
2019-04-11T02:35:24.865Z,69.16
2019-04-11T02:37:54.947Z,69.33
2019-04-11T02:40:24.575Z,69.28
2019-04-11T02:42:54.857Z,69.40
2019-04-11T02:45:36.275Z,69.46
2019-04-11T02:47:56.418Z,69.49
2019-04-11T02:50:26.535Z,69.59
2019-04-11T02:52:56.637Z,69.92
2019-04-11T02:55:25.427Z,69.86
2019-04-11T02:57:56.678Z,70.08
2019-04-11T03:00:26.680Z,70.13
2019-04-11T03:02:56.914Z,70.16
2019-04-11T03:05:26.895Z,70.33
2019-04-11T03:07:56.416Z,70.29
2019-04-11T03:10:27.123Z,70.29
2019-04-11T03:12:58.884Z,70.47
2019-04-11T03:15:43.122Z,70.56
2019-04-11T03:18:02.285Z,70.78
2019-04-11T03:20:34.487Z,70.71
2019-04-11T03:23:04.871Z,70.70
2019-04-11T03:25:30.649Z,70.73
2019-04-11T03:28:01.584Z,70.98
2019-04-11T03:30:46.458Z,70.80
2019-04-11T03:33:58.219Z,70.96
2019-04-11T03:36:27.600Z,70.97
2019-04-11T03:38:27.674Z,70.98
2019-04-11T03:40:50.458Z,71.01
2019-04-11T03:43:16.450Z,71.14
2019-04-11T03:45:48.054Z,71.07
2019-04-11T03:48:21.876Z,71.31
2019-04-11T03:50:39.270Z,71.46
2019-04-11T03:53:10.993Z,71.50
2019-04-11T03:55:39.201Z,71.71
2019-04-11T03:58:08.967Z,71.53
2019-04-11T04:00:42.513Z,71.63
2019-04-11T04:03:11.203Z,71.60
2019-04-11T04:05:41.982Z,71.76
2019-04-11T04:08:10.869Z,71.94
2019-04-11T04:10:42.275Z,71.89
2019-04-11T04:13:16.837Z,72.05
2019-04-11T04:16:00.210Z,71.99
2019-04-11T04:18:29.891Z,72.05
2019-04-11T04:21:09.165Z,72.24
2019-04-11T04:23:39.123Z,72.33
2019-04-11T04:26:11.611Z,72.51
2019-04-11T04:28:40.651Z,72.33
2019-04-11T04:31:11.222Z,72.62
2019-04-11T04:33:40.049Z,72.66
2019-04-11T04:36:11.079Z,72.67
2019-04-11T04:38:41.465Z,72.73
2019-04-11T04:41:22.465Z,73.04
2019-04-11T04:43:44.319Z,73.03
2019-04-11T04:46:29.966Z,72.96
2019-04-11T04:48:45.349Z,72.96
2019-04-11T04:51:16.181Z,73.13
2019-04-11T04:53:45.226Z,73.38
2019-04-11T04:56:16.745Z,73.46
2019-04-11T04:58:46.522Z,73.51
2019-04-11T05:01:15.634Z,73.65
2019-04-11T05:03:46.641Z,73.40
2019-04-11T05:06:16.342Z,73.49
2019-04-11T05:08:45.267Z,73.42
2019-04-11T05:11:14.130Z,73.51
2019-04-11T05:13:46.320Z,73.65
2019-04-11T05:16:17.554Z,73.68
2019-04-11T05:18:43.957Z,73.79
2019-04-11T05:21:12.907Z,73.62
2019-04-11T05:23:41.787Z,73.84
2019-04-11T05:26:10.969Z,73.68
2019-04-11T05:28:39.591Z,73.64
2019-04-11T05:31:08.180Z,73.67
2019-04-11T05:33:37.173Z,73.63
2019-04-11T05:36:06.002Z,73.57
2019-04-11T05:38:35.949Z,72.96
2019-04-11T05:41:09.661Z,71.59
2019-04-11T05:43:37.330Z,70.20
2019-04-11T05:46:21.921Z,68.56
2019-04-11T05:48:57.848Z,67.74
2019-04-11T05:51:23.852Z,66.79
2019-04-11T05:53:55.545Z,67.04
2019-04-11T05:56:26.088Z,67.27
2019-04-11T05:58:56.326Z,67.52
2019-04-11T06:01:36.308Z,67.91
2019-04-11T06:04:16.129Z,68.32
2019-04-11T06:06:46.554Z,68.80
2019-04-11T06:09:16.886Z,69.07
2019-04-11T06:11:55.766Z,69.20
2019-04-11T06:14:25.163Z,68.59
2019-04-11T06:16:56.205Z,67.43
2019-04-11T06:19:28.232Z,65.51
2019-04-11T06:22:01.522Z,63.89
2019-04-11T06:24:48.567Z,62.81
2019-04-11T06:27:22.152Z,60.89
2019-04-11T06:30:09.564Z,59.42
2019-04-11T06:32:49.188Z,58.29
2019-04-11T06:35:37.847Z,56.82
2019-04-11T06:38:10.826Z,54.91
2019-04-11T06:40:59.982Z,54.13
2019-04-11T06:43:34.195Z,53.21
2019-04-11T06:46:16.714Z,52.55
2019-04-11T06:49:00.225Z,52.27
2019-04-11T06:51:30.496Z,51.97
2019-04-11T06:54:18.962Z,51.42
2019-04-11T06:56:50.586Z,50.83
2019-04-11T06:59:24.041Z,50.13
2019-04-11T07:02:07.553Z,50.18
2019-04-11T07:04:37.772Z,49.19
2019-04-11T07:07:09.901Z,48.83
2019-04-11T07:09:45.013Z,47.85
2019-04-11T07:12:18.159Z,47.58
2019-04-11T07:14:48.877Z,47.06
2019-04-11T07:17:37.028Z,46.31
2019-04-11T07:20:27.349Z,45.84
2019-04-11T07:23:15.645Z,45.16
2019-04-11T07:25:53.813Z,44.76
2019-04-11T07:28:25.687Z,44.39
2019-04-11T07:31:07.972Z,43.69
2019-04-11T07:33:54.655Z,43.44
2019-04-11T07:36:41.385Z,43.69
2019-04-11T07:39:14.541Z,43.47
2019-04-11T07:41:47.981Z,43.63
2019-04-11T07:44:22.357Z,42.96
2019-04-11T07:46:53.625Z,41.82
2019-04-11T07:49:39.080Z,41.90
2019-04-11T07:52:15.546Z,41.64
2019-04-11T07:54:45.683Z,41.90
2019-04-11T07:57:32.423Z,41.59
2019-04-11T08:00:03.754Z,41.51
2019-04-11T08:02:53.294Z,40.90
2019-04-11T08:05:51.513Z,41.20
2019-04-11T08:08:27.938Z,40.83
2019-04-11T08:10:58.258Z,40.21
2019-04-11T08:13:36.724Z,39.59
2019-04-11T08:16:24.050Z,39.89
2019-04-11T08:19:01.313Z,40.01
2019-04-11T08:21:47.985Z,39.40
2019-04-11T08:24:34.354Z,39.06
2019-04-11T08:27:09.398Z,39.28
2019-04-11T08:29:38.193Z,38.93
2019-04-11T08:32:09.653Z,38.37
2019-04-11T08:34:39.991Z,39.20
2019-04-11T08:37:13.874Z,38.40
2019-04-11T08:39:49.091Z,38.08
2019-04-11T08:42:25.444Z,37.95
2019-04-11T08:44:54.331Z,37.61
2019-04-11T08:47:22.966Z,37.12
2019-04-11T08:49:52.266Z,37.26
2019-04-11T08:52:24.331Z,37.68
2019-04-11T08:55:00.269Z,37.19
2019-04-11T08:57:41.569Z,37.20
2019-04-11T09:00:15.675Z,37.15
2019-04-11T09:02:44.961Z,36.48
2019-04-11T09:05:22.716Z,36.16
2019-04-11T09:08:00.141Z,35.52
2019-04-11T09:10:50.745Z,36.26
2019-04-11T09:13:28.160Z,35.86
2019-04-11T09:16:01.450Z,36.97
2019-04-11T09:18:32.356Z,36.78
2019-04-11T09:21:20.281Z,35.11
2019-04-11T09:23:50.119Z,34.96
2019-04-11T09:26:29.441Z,34.57
2019-04-11T09:28:58.124Z,34.96
2019-04-11T09:31:35.855Z,34.54
2019-04-11T09:34:09.260Z,35.27
2019-04-11T09:36:45.462Z,35.31
2019-04-11T09:39:33.074Z,35.76
2019-04-11T09:42:13.402Z,35.64
2019-04-11T09:44:49.332Z,36.24
2019-04-11T09:47:28.919Z,36.30
2019-04-11T09:50:18.953Z,36.06
2019-04-11T09:52:49.587Z,35.76
2019-04-11T09:55:29.111Z,35.57
2019-04-11T09:58:01.212Z,34.96
2019-04-11T10:00:39.124Z,34.98
2019-04-11T10:03:15.887Z,34.59
2019-04-11T10:05:50.294Z,34.58
2019-04-11T10:08:22.499Z,35.40
2019-04-11T10:11:11.185Z,35.68
2019-04-11T10:13:51.194Z,34.67
2019-04-11T10:16:26.297Z,34.34
2019-04-11T10:18:57.794Z,34.25
2019-04-11T10:21:29.006Z,33.56
2019-04-11T10:24:05.244Z,32.27
2019-04-11T10:26:36.140Z,33.28
2019-04-11T10:29:06.529Z,33.06
2019-04-11T10:31:36.814Z,33.00
2019-04-11T10:34:23.711Z,33.22
2019-04-11T10:36:54.018Z,33.71
2019-04-11T10:39:24.975Z,33.55
2019-04-11T10:41:56.414Z,34.06
2019-04-11T10:44:33.984Z,34.27
2019-04-11T10:47:14.548Z,34.96
2019-04-11T10:49:52.614Z,34.95
2019-04-11T10:52:26.717Z,33.59
2019-04-11T10:55:05.189Z,33.53
2019-04-11T10:57:38.618Z,33.08
2019-04-11T11:00:20.919Z,33.54
2019-04-11T11:03:11.696Z,33.31
2019-04-11T11:05:49.339Z,32.87
2019-04-11T11:08:19.608Z,33.28
2019-04-11T11:10:50.022Z,33.72
2019-04-11T11:13:45.797Z,34.23
2019-04-11T11:16:15.974Z,34.22
2019-04-11T11:19:24.589Z,33.29
2019-04-11T11:21:35.573Z,33.62
2019-04-11T11:24:22.107Z,33.09
2019-04-11T11:26:53.672Z,32.95
2019-04-11T11:29:32.420Z,34.10
2019-04-11T11:32:11.178Z,34.23
2019-04-11T11:34:42.245Z,33.85
2019-04-11T11:37:13.133Z,34.12
2019-04-11T11:40:10.566Z,34.00
2019-04-11T11:42:54.440Z,34.08
2019-04-11T11:45:29.810Z,34.22
2019-04-11T11:48:14.998Z,34.04
2019-04-11T11:50:42.717Z,33.76
2019-04-11T11:53:32.845Z,33.20
2019-04-11T11:56:05.396Z,32.62
2019-04-11T11:58:42.344Z,32.52
2019-04-11T12:01:11.684Z,32.08
2019-04-11T12:03:50.758Z,31.09
2019-04-11T12:06:25.233Z,31.31
2019-04-11T12:09:12.109Z,32.12
2019-04-11T12:11:43.354Z,32.64
2019-04-11T12:14:32.753Z,32.47
2019-04-11T12:17:06.799Z,32.20
2019-04-11T12:19:47.624Z,31.78
2019-04-11T12:22:08.429Z,32.44
2019-04-11T12:24:43.315Z,31.95
2019-04-11T12:27:16.346Z,32.05
2019-04-11T12:30:05.842Z,32.50
2019-04-11T12:32:36.830Z,32.55
2019-04-11T12:35:26.293Z,32.30
2019-04-11T12:37:57.895Z,32.59
2019-04-11T12:40:28.205Z,33.17
2019-04-11T12:42:59.331Z,34.65
2019-04-11T12:45:35.256Z,33.85
2019-04-11T12:48:04.427Z,34.46
2019-04-11T12:50:52.672Z,34.98
2019-04-11T12:53:22.833Z,35.45
2019-04-11T12:55:53.045Z,35.92
2019-04-11T12:58:29.627Z,35.62
2019-04-11T13:01:16.462Z,36.10
2019-04-11T13:03:46.845Z,36.67
2019-04-11T13:06:34.808Z,36.60
2019-04-11T13:09:10.086Z,36.70
2019-04-11T13:11:43.282Z,36.59
2019-04-11T13:14:31.373Z,35.15
2019-04-11T13:17:01.656Z,34.96
2019-04-11T13:19:43.541Z,35.00
2019-04-11T13:22:13.789Z,34.41
2019-04-11T13:24:47.042Z,34.59
2019-04-11T13:27:17.363Z,34.75
2019-04-11T13:30:04.806Z,35.50
2019-04-11T13:32:45.800Z,34.65
2019-04-11T13:35:16.302Z,34.97
2019-04-11T13:38:02.899Z,34.75
2019-04-11T13:40:46.275Z,34.99
2019-04-11T13:43:18.091Z,35.25
2019-04-11T13:45:55.310Z,35.27
2019-04-11T13:48:44.264Z,35.52
2019-04-11T13:51:32.095Z,35.83
2019-04-11T13:54:19.081Z,35.80
2019-04-11T13:56:55.174Z,36.61
2019-04-11T13:59:34.784Z,37.18
2019-04-11T14:02:17.100Z,37.58
2019-04-11T14:04:50.796Z,37.49
2019-04-11T14:07:27.044Z,37.63
2019-04-11T14:09:59.114Z,37.63
2019-04-11T14:12:33.332Z,37.84
2019-04-11T14:15:05.953Z,37.14
2019-04-11T14:17:35.058Z,37.36
2019-04-11T14:20:11.570Z,37.58
2019-04-11T14:22:43.471Z,37.21
2019-04-11T14:25:16.552Z,37.64
2019-04-11T14:27:46.934Z,37.49
2019-04-11T14:30:32.691Z,37.61
2019-04-11T14:33:01.552Z,37.56
2019-04-11T14:35:40.811Z,38.08
2019-04-11T14:38:11.545Z,37.95
2019-04-11T14:41:01.990Z,37.97
2019-04-11T14:43:32.388Z,37.76
2019-04-11T14:46:08.590Z,37.92
2019-04-11T14:48:42.006Z,38.13
2019-04-11T14:51:15.950Z,38.23
2019-04-11T14:53:57.218Z,38.80
2019-04-11T14:56:30.445Z,38.96
2019-04-11T14:59:06.898Z,39.33
2019-04-11T15:01:35.747Z,39.20
2019-04-11T15:04:21.323Z,39.46
2019-04-11T15:07:00.293Z,39.54
2019-04-11T15:09:48.855Z,39.21
2019-04-11T15:12:19.620Z,39.41
2019-04-11T15:14:51.812Z,39.46
2019-04-11T15:17:24.325Z,39.11
2019-04-11T15:19:53.964Z,38.90
2019-04-11T15:22:30.236Z,38.74
2019-04-11T15:25:00.688Z,38.96
2019-04-11T15:27:38.554Z,38.73
2019-04-11T15:30:11.485Z,39.09
2019-04-11T15:32:47.716Z,39.04
2019-04-11T15:35:16.703Z,39.50
2019-04-11T15:38:03.401Z,39.56
2019-04-11T15:40:32.016Z,39.92
2019-04-11T15:43:02.240Z,40.46
2019-04-11T15:45:47.652Z,40.86
2019-04-11T15:48:23.575Z,40.78
2019-04-11T15:51:10.081Z,41.18
2019-04-11T15:53:46.488Z,41.18
2019-04-11T15:56:33.230Z,41.35
2019-04-11T15:59:06.483Z,41.14
2019-04-11T16:01:53.089Z,41.36
2019-04-11T16:04:29.572Z,41.38
2019-04-11T16:07:12.696Z,41.10
2019-04-11T16:09:44.115Z,40.69
2019-04-11T16:12:16.344Z,40.80
2019-04-11T16:14:45.008Z,40.62
2019-04-11T16:17:31.492Z,40.77
2019-04-11T16:20:01.393Z,40.54
2019-04-11T16:22:43.965Z,40.21
2019-04-11T16:25:14.517Z,40.66
2019-04-11T16:28:00.764Z,40.07
2019-04-11T16:30:31.031Z,39.48
2019-04-11T16:33:07.094Z,39.93
2019-04-11T16:35:43.377Z,39.94
2019-04-11T16:38:13.599Z,40.56
2019-04-11T16:41:00.233Z,41.10
2019-04-11T16:43:29.116Z,41.44
2019-04-11T16:46:02.167Z,41.37
2019-04-11T16:48:30.893Z,41.51
2019-04-11T16:50:59.648Z,42.01
2019-04-11T16:53:28.298Z,41.99
2019-04-11T16:55:56.894Z,42.31
2019-04-11T16:58:25.825Z,42.48
2019-04-11T17:00:54.466Z,42.70
2019-04-11T17:03:25.146Z,43.03
2019-04-11T17:06:06.896Z,43.50
2019-04-11T17:08:51.602Z,43.34
2019-04-11T17:11:20.915Z,42.97
2019-04-11T17:13:49.512Z,43.25
2019-04-11T17:16:18.403Z,43.38
2019-04-11T17:18:47.177Z,43.22
2019-04-11T17:21:16.030Z,43.04
2019-04-11T17:23:47.002Z,43.23
2019-04-11T17:26:15.074Z,42.91
2019-04-11T17:28:43.823Z,43.13
2019-04-11T17:31:13.090Z,43.37
2019-04-11T17:33:41.671Z,43.04
2019-04-11T17:36:10.243Z,43.22
2019-04-11T17:38:39.297Z,43.16
2019-04-11T17:41:10.890Z,43.31
2019-04-11T17:43:38.245Z,43.29
2019-04-11T17:46:07.065Z,43.49
2019-04-11T17:48:36.020Z,43.49
2019-04-11T17:51:05.652Z,43.27
2019-04-11T17:53:34.489Z,43.19
2019-04-11T17:56:03.394Z,43.40
2019-04-11T17:58:31.986Z,43.38
2019-04-11T18:01:05.157Z,43.32
2019-04-11T18:03:32.763Z,43.37
2019-04-11T18:06:01.416Z,43.51
2019-04-11T18:08:30.010Z,43.65
2019-04-11T18:10:58.701Z,43.89
2019-04-11T18:13:30.602Z,44.43
2019-04-11T18:16:00.832Z,44.78
2019-04-11T18:18:28.005Z,44.61
2019-04-11T18:20:56.614Z,44.80
2019-04-11T18:23:25.385Z,45.06
2019-04-11T18:25:54.507Z,45.20
2019-04-11T18:28:23.282Z,45.70
2019-04-11T18:30:54.010Z,45.54
2019-04-11T18:33:23.715Z,45.63
2019-04-11T18:35:53.934Z,45.77
2019-04-11T18:38:22.989Z,45.93
2019-04-11T18:40:51.694Z,45.90
2019-04-11T18:43:20.341Z,45.64
2019-04-11T18:45:48.924Z,45.66
2019-04-11T18:48:17.778Z,45.50
2019-04-11T18:50:46.493Z,45.53
2019-04-11T18:53:15.396Z,45.51
2019-04-11T18:55:44.157Z,45.71
2019-04-11T18:58:13.109Z,45.79
2019-04-11T19:00:42.359Z,45.69
2019-04-11T19:03:11.186Z,45.94
2019-04-11T19:05:42.794Z,46.03
2019-04-11T19:08:12.859Z,45.98
2019-04-11T19:10:42.883Z,46.26
2019-04-11T19:13:12.082Z,46.25
2019-04-11T19:15:41.086Z,46.45
2019-04-11T19:18:09.719Z,46.69
2019-04-11T19:20:38.654Z,46.90
2019-04-11T19:23:07.950Z,47.06
2019-04-11T19:25:37.399Z,47.32
2019-04-11T19:28:06.150Z,47.30
2019-04-11T19:30:34.769Z,47.88
2019-04-11T19:33:03.473Z,47.88
2019-04-11T19:35:32.529Z,47.85
2019-04-11T19:38:01.626Z,48.09
2019-04-11T19:40:30.520Z,48.11
2019-04-11T19:42:59.256Z,48.43
2019-04-11T19:45:27.868Z,48.69
2019-04-11T19:47:56.557Z,48.93
2019-04-11T19:50:28.749Z,48.88
2019-04-11T19:52:55.973Z,49.14
2019-04-11T19:55:26.284Z,49.43
2019-04-11T19:57:55.705Z,49.39
2019-04-11T20:00:25.049Z,49.66
2019-04-11T20:02:54.118Z,49.66
2019-04-11T20:05:23.448Z,50.14
2019-04-11T20:07:52.024Z,50.17
2019-04-11T20:10:21.057Z,50.37
2019-04-11T20:12:49.906Z,50.65
2019-04-11T20:15:18.562Z,50.82
2019-04-11T20:17:51.079Z,51.04
2019-04-11T20:20:18.158Z,51.29
2019-04-11T20:22:58.350Z,51.42
2019-04-11T20:25:17.471Z,51.78
2019-04-11T20:27:50.252Z,51.74
2019-04-11T20:30:16.920Z,51.98
2019-04-11T20:32:45.511Z,52.28
2019-04-11T20:35:14.111Z,52.32
2019-04-11T20:37:44.713Z,52.27
2019-04-11T20:40:17.327Z,52.53
2019-04-11T20:42:43.867Z,52.71
2019-04-11T20:45:12.883Z,52.96
2019-04-11T20:47:42.803Z,53.28
2019-04-11T20:50:11.382Z,53.38
2019-04-11T20:52:39.959Z,53.65
2019-04-11T20:55:09.771Z,53.92
2019-04-11T20:57:40.429Z,53.93
2019-04-11T21:00:12.422Z,54.52
2019-04-11T21:02:41.317Z,54.60
2019-04-11T21:05:11.354Z,54.64
2019-04-11T21:07:40.035Z,54.89
2019-04-11T21:10:08.911Z,54.85
2019-04-11T21:12:37.996Z,54.76
2019-04-11T21:15:08.495Z,54.79
2019-04-11T21:17:37.081Z,55.20
2019-04-11T21:20:07.227Z,55.24
2019-04-11T21:22:35.909Z,55.33
2019-04-11T21:25:06.019Z,55.29
2019-04-11T21:27:34.585Z,55.54
2019-04-11T21:30:03.837Z,55.37
2019-04-11T21:32:32.694Z,55.54
2019-04-11T21:35:02.348Z,55.44
2019-04-11T21:37:31.743Z,55.35
2019-04-11T21:40:00.449Z,55.51
2019-04-11T21:42:29.157Z,55.67
2019-04-11T21:44:58.490Z,55.78
2019-04-11T21:47:27.738Z,55.53
2019-04-11T21:49:57.014Z,55.47
2019-04-11T21:52:26.079Z,55.56
2019-04-11T21:54:54.733Z,55.46
2019-04-11T21:57:23.673Z,55.51
2019-04-11T21:59:52.557Z,55.37
2019-04-11T22:02:24.012Z,55.31
2019-04-11T22:04:51.555Z,55.20
2019-04-11T22:07:20.512Z,55.15
2019-04-11T22:09:49.292Z,55.03
2019-04-11T22:12:18.323Z,54.89
2019-04-11T22:14:46.903Z,54.76
2019-04-11T22:17:16.154Z,54.55
2019-04-11T22:19:46.556Z,54.46
2019-04-11T22:22:15.163Z,54.38
2019-04-11T22:24:43.824Z,54.40
2019-04-11T22:27:12.403Z,54.43
2019-04-11T22:29:41.008Z,54.24
2019-04-11T22:32:09.581Z,54.30
2019-04-11T22:34:45.570Z,54.30
2019-04-11T22:37:14.216Z,54.15
2019-04-11T22:39:42.843Z,54.16
2019-04-11T22:42:11.656Z,54.27
2019-04-11T22:44:41.160Z,54.18
2019-04-11T22:47:09.764Z,54.05
2019-04-11T22:49:39.371Z,54.11
2019-04-11T22:52:11.310Z,54.05
2019-04-11T22:54:41.159Z,54.00
2019-04-11T22:57:12.215Z,53.99
2019-04-11T22:59:44.028Z,53.99
2019-04-11T23:02:17.070Z,54.01
2019-04-11T23:04:47.159Z,54.31
2019-04-11T23:07:17.923Z,53.88
2019-04-11T23:09:48.781Z,53.96
2019-04-11T23:12:16.805Z,53.74
2019-04-11T23:14:45.801Z,53.82
2019-04-11T23:17:14.901Z,53.65
2019-04-11T23:19:44.099Z,53.62
2019-04-11T23:22:13.334Z,53.41
2019-04-11T23:24:42.274Z,53.34
2019-04-11T23:27:11.065Z,53.23
2019-04-11T23:29:39.811Z,53.12
2019-04-11T23:32:08.464Z,52.96
2019-04-11T23:34:37.350Z,52.89
2019-04-11T23:37:05.958Z,52.70
2019-04-11T23:39:34.591Z,52.56
2019-04-11T23:42:03.533Z,52.51
2019-04-11T23:44:32.292Z,52.56
2019-04-11T23:47:00.856Z,52.67
2019-04-11T23:49:29.693Z,52.60
2019-04-11T23:51:58.408Z,52.49
2019-04-11T23:54:29.187Z,52.62
2019-04-11T23:57:00.535Z,52.57
2019-04-11T23:59:32.161Z,52.67
